createdAt,value
2022-11-29T00:02:35.734Z,973.14
2022-11-29T00:07:35.601Z,973.08
2022-11-29T00:12:35.503Z,973.05
2022-11-29T00:17:35.454Z,973.05
2022-11-29T00:22:35.376Z,973.09
2022-11-29T00:27:35.341Z,973.07
2022-11-29T00:32:35.265Z,973.09
2022-11-29T00:37:35.189Z,973.04
2022-11-29T00:42:35.121Z,972.96
2022-11-29T00:47:35.081Z,973.00
2022-11-29T00:52:35.029Z,972.97
2022-11-29T00:57:34.989Z,973.01
2022-11-29T01:02:34.984Z,972.99
2022-11-29T01:07:34.913Z,972.95
2022-11-29T01:12:34.814Z,972.94
2022-11-29T01:17:34.810Z,972.96
2022-11-29T01:22:34.701Z,973.01
2022-11-29T01:27:34.610Z,973.04
2022-11-29T01:32:34.573Z,973.04
2022-11-29T01:37:34.491Z,973.12
2022-11-29T01:42:34.438Z,973.10
2022-11-29T01:47:34.383Z,973.06
2022-11-29T01:52:34.325Z,973.05
2022-11-29T01:57:34.261Z,973.06
2022-11-29T02:02:34.256Z,973.02
2022-11-29T02:07:34.173Z,973.03
2022-11-29T02:12:34.071Z,972.98
2022-11-29T02:17:34.010Z,973.02
2022-11-29T02:22:33.971Z,972.93
2022-11-29T02:27:33.889Z,972.98
2022-11-29T02:32:33.832Z,972.97
2022-11-29T02:37:33.768Z,972.99
2022-11-29T02:42:33.733Z,973.03
2022-11-29T02:47:33.695Z,973.03
2022-11-29T02:52:33.601Z,972.99
2022-11-29T02:57:33.567Z,973.08
2022-11-29T03:02:33.499Z,973.04
2022-11-29T03:07:33.485Z,973.09
2022-11-29T03:12:33.350Z,973.18
2022-11-29T03:17:33.290Z,973.15
2022-11-29T03:22:33.222Z,973.20
2022-11-29T03:27:33.169Z,973.23
2022-11-29T03:32:33.110Z,973.32
2022-11-29T03:37:33.043Z,973.34
2022-11-29T03:42:32.990Z,973.31
2022-11-29T03:47:32.935Z,973.28
2022-11-29T03:52:32.867Z,973.29
2022-11-29T03:57:32.814Z,973.30
2022-11-29T04:02:32.764Z,973.30
2022-11-29T04:07:32.698Z,973.25
2022-11-29T04:12:32.645Z,973.29
2022-11-29T04:17:32.610Z,973.30
2022-11-29T04:22:32.541Z,973.29
2022-11-29T04:27:32.460Z,973.30
2022-11-29T04:32:32.409Z,973.34
2022-11-29T04:37:32.350Z,973.40
2022-11-29T04:42:32.290Z,973.38
2022-11-29T04:47:32.220Z,973.41
2022-11-29T04:52:32.143Z,973.45
2022-11-29T04:57:32.086Z,973.43
2022-11-29T05:02:32.077Z,973.43
2022-11-29T05:07:32.066Z,973.45
2022-11-29T05:12:31.928Z,973.49
2022-11-29T05:17:31.865Z,973.53
2022-11-29T05:22:31.819Z,973.56
2022-11-29T05:27:31.766Z,973.62
2022-11-29T05:32:31.670Z,973.64
2022-11-29T05:37:31.615Z,973.64
2022-11-29T05:42:31.539Z,973.67
2022-11-29T05:47:31.754Z,973.73
2022-11-29T05:52:31.406Z,973.72
2022-11-29T05:57:31.355Z,973.79
2022-11-29T06:02:31.340Z,973.81
2022-11-29T06:07:31.284Z,973.79
2022-11-29T06:12:31.180Z,973.82
2022-11-29T06:17:37.278Z,973.88
2022-11-29T06:22:32.060Z,973.87
2022-11-29T06:27:31.042Z,973.91
2022-11-29T06:32:30.954Z,973.94
2022-11-29T06:37:30.888Z,973.97
2022-11-29T06:42:30.826Z,974.04
2022-11-29T06:47:30.794Z,974.12
2022-11-29T06:52:30.710Z,974.18
2022-11-29T06:57:30.679Z,974.21
2022-11-29T07:02:30.600Z,974.20
2022-11-29T07:07:30.603Z,974.25
2022-11-29T07:12:30.485Z,974.29
2022-11-29T07:17:30.448Z,974.28
2022-11-29T07:22:30.338Z,974.30
2022-11-29T07:27:30.290Z,974.36
2022-11-29T07:32:30.229Z,974.42
2022-11-29T07:37:30.190Z,974.38
2022-11-29T07:42:30.137Z,974.37
2022-11-29T07:47:35.322Z,974.42
2022-11-29T07:52:30.993Z,974.41
2022-11-29T07:57:29.950Z,974.46
2022-11-29T08:02:29.973Z,974.49
2022-11-29T08:07:29.854Z,974.52
2022-11-29T08:12:29.778Z,974.51
2022-11-29T08:17:29.754Z,974.57
2022-11-29T08:22:29.677Z,974.60
2022-11-29T08:27:29.627Z,974.61
2022-11-29T08:32:29.563Z,974.64
2022-11-29T08:37:29.516Z,974.65
2022-11-29T08:42:29.465Z,974.64
2022-11-29T08:47:29.524Z,974.68
2022-11-29T08:52:29.333Z,974.72
2022-11-29T08:57:39.786Z,974.77
2022-11-29T09:02:30.311Z,974.84
2022-11-29T09:07:29.262Z,974.88
2022-11-29T09:12:29.114Z,974.87
2022-11-29T09:17:29.065Z,974.93
2022-11-29T09:22:29.011Z,974.92
2022-11-29T09:27:28.970Z,974.95
2022-11-29T09:32:28.891Z,974.94
2022-11-29T09:37:28.834Z,974.94
2022-11-29T09:42:28.774Z,974.95
2022-11-29T09:47:28.710Z,974.96
2022-11-29T09:52:28.671Z,974.97
2022-11-29T09:57:28.605Z,974.97
2022-11-29T10:02:28.596Z,974.99
2022-11-29T10:07:28.572Z,975.00
2022-11-29T10:12:28.450Z,974.99
2022-11-29T10:17:28.426Z,974.95
2022-11-29T10:22:28.329Z,974.97
2022-11-29T10:27:28.267Z,974.97
2022-11-29T10:32:28.234Z,974.95
2022-11-29T10:37:28.159Z,974.99
2022-11-29T10:42:28.098Z,974.97
2022-11-29T10:47:28.036Z,974.95
2022-11-29T10:52:28.014Z,974.88
2022-11-29T10:57:27.965Z,974.88
2022-11-29T11:02:27.965Z,974.88
2022-11-29T11:07:27.893Z,974.87
2022-11-29T11:12:27.772Z,974.90
2022-11-29T11:17:27.712Z,974.92
2022-11-29T11:22:27.655Z,974.91
2022-11-29T11:27:27.579Z,974.94
2022-11-29T11:32:27.549Z,974.92
2022-11-29T11:37:27.458Z,974.94
2022-11-29T11:42:27.446Z,974.98
2022-11-29T11:47:27.340Z,974.93
2022-11-29T11:52:27.251Z,974.94
2022-11-29T11:57:27.190Z,974.92
2022-11-29T12:02:27.235Z,974.99
2022-11-29T12:07:51.833Z,975.01
2022-11-29T12:12:28.048Z,975.02
2022-11-29T12:17:27.031Z,975.07
2022-11-29T12:22:26.879Z,975.11
2022-11-29T12:27:26.810Z,975.06
2022-11-29T12:32:26.850Z,975.10
2022-11-29T12:37:26.697Z,975.12
2022-11-29T12:42:26.667Z,975.11
2022-11-29T12:47:41.896Z,975.08
2022-11-29T12:52:27.642Z,975.11
2022-11-29T12:57:26.505Z,975.14
2022-11-29T13:02:26.848Z,975.16
2022-11-29T13:07:26.455Z,975.21
2022-11-29T13:12:26.286Z,975.17
2022-11-29T13:17:26.363Z,975.21
2022-11-29T13:22:26.146Z,975.22
2022-11-29T13:27:26.138Z,975.23
2022-11-29T13:32:26.160Z,975.23
2022-11-29T13:37:26.058Z,975.26
2022-11-29T13:42:26.039Z,975.31
2022-11-29T13:47:25.850Z,975.34
2022-11-29T13:52:25.843Z,975.42
2022-11-29T13:57:26.131Z,975.42
2022-11-29T14:02:25.641Z,975.37
2022-11-29T14:07:25.631Z,975.48
2022-11-29T14:12:25.491Z,975.54
2022-11-29T14:17:25.416Z,975.55
2022-11-29T14:22:25.362Z,975.56
2022-11-29T14:27:25.286Z,975.54
2022-11-29T14:32:25.236Z,975.57
2022-11-29T14:37:25.171Z,975.55
2022-11-29T14:42:25.128Z,975.53
2022-11-29T14:47:25.062Z,975.54
2022-11-29T14:52:25.009Z,975.58
2022-11-29T14:57:24.963Z,975.57
2022-11-29T15:02:24.931Z,975.63
2022-11-29T15:07:24.826Z,975.63
2022-11-29T15:12:24.771Z,975.65
2022-11-29T15:17:24.699Z,975.68
2022-11-29T15:22:24.642Z,975.78
2022-11-29T15:27:24.592Z,975.75
2022-11-29T15:32:24.522Z,975.76
2022-11-29T15:37:24.443Z,975.82
2022-11-29T15:42:29.788Z,975.83
2022-11-29T15:47:25.310Z,975.83
2022-11-29T15:52:24.263Z,975.83
2022-11-29T15:57:24.189Z,975.88
2022-11-29T16:02:24.203Z,975.91
2022-11-29T16:07:24.145Z,975.85
2022-11-29T16:12:24.044Z,975.87
2022-11-29T16:17:23.960Z,975.92
2022-11-29T16:22:23.924Z,976.01
2022-11-29T16:27:23.870Z,976.05
2022-11-29T16:32:23.809Z,976.11
2022-11-29T16:37:23.716Z,976.08
2022-11-29T16:42:25.560Z,976.10
2022-11-29T16:47:23.655Z,976.03
2022-11-29T16:52:23.600Z,976.01
2022-11-29T16:57:23.535Z,976.16
2022-11-29T17:02:23.497Z,976.10
2022-11-29T17:07:23.435Z,976.12
2022-11-29T17:12:23.362Z,976.19
2022-11-29T17:17:23.306Z,976.28
2022-11-29T17:22:23.253Z,976.28
2022-11-29T17:27:23.163Z,976.42
2022-11-29T17:32:26.664Z,976.31
2022-11-29T17:37:23.069Z,976.33
2022-11-29T17:42:23.042Z,976.35
2022-11-29T17:47:22.975Z,976.41
2022-11-29T17:52:22.926Z,976.41
2022-11-29T17:57:22.879Z,976.36
2022-11-29T18:02:22.864Z,976.39
2022-11-29T18:07:22.792Z,976.44
2022-11-29T18:12:22.712Z,976.43
2022-11-29T18:17:22.640Z,976.53
2022-11-29T18:22:22.571Z,976.59
2022-11-29T18:27:22.512Z,976.64
2022-11-29T18:32:22.499Z,976.63
2022-11-29T18:37:47.533Z,976.59
2022-11-29T18:42:23.362Z,976.59
2022-11-29T18:47:22.282Z,976.67
2022-11-29T18:52:22.227Z,976.65
2022-11-29T18:57:22.198Z,976.69
2022-11-29T19:02:22.273Z,976.70
2022-11-29T19:07:22.113Z,976.79
2022-11-29T19:12:22.051Z,976.78
2022-11-29T19:17:21.961Z,976.75
2022-11-29T19:22:21.921Z,976.75
2022-11-29T19:27:21.852Z,976.83
2022-11-29T19:32:21.832Z,976.90
2022-11-29T19:37:21.768Z,977.05
2022-11-29T19:42:21.712Z,977.14
2022-11-29T19:47:21.670Z,977.13
2022-11-29T19:52:21.622Z,977.14
2022-11-29T19:57:21.541Z,977.23
2022-11-29T20:02:21.589Z,977.29
2022-11-29T20:07:21.471Z,977.24
2022-11-29T20:12:21.353Z,977.28
2022-11-29T20:17:21.301Z,977.29
2022-11-29T20:22:21.294Z,977.26
2022-11-29T20:27:21.181Z,977.29
2022-11-29T20:32:21.134Z,977.31
2022-11-29T20:37:21.079Z,977.40
2022-11-29T20:42:21.071Z,977.37
2022-11-29T20:47:21.351Z,977.47
2022-11-29T20:52:20.932Z,977.45
2022-11-29T20:57:20.881Z,977.45
2022-11-29T21:02:20.799Z,977.44
2022-11-29T21:07:20.773Z,977.39
2022-11-29T21:12:20.698Z,977.41
2022-11-29T21:17:20.651Z,977.41
2022-11-29T21:22:20.594Z,977.39
2022-11-29T21:27:20.520Z,977.52
2022-11-29T21:32:20.461Z,977.61
2022-11-29T21:37:20.400Z,977.68
2022-11-29T21:42:20.348Z,977.61
2022-11-29T21:47:20.317Z,977.61
2022-11-29T21:52:22.808Z,977.55
2022-11-29T21:57:20.181Z,977.57
2022-11-29T22:02:20.300Z,977.49
2022-11-29T22:07:20.165Z,977.53
2022-11-29T22:12:33.583Z,977.53
2022-11-29T22:17:20.972Z,977.51
2022-11-29T22:22:19.911Z,977.49
2022-11-29T22:27:19.863Z,977.49
2022-11-29T22:32:19.820Z,977.52
2022-11-29T22:37:19.757Z,977.61
2022-11-29T22:42:19.710Z,977.62
2022-11-29T22:47:19.611Z,977.68
2022-11-29T22:52:19.561Z,977.62
2022-11-29T22:57:19.494Z,977.59
2022-11-29T23:02:19.506Z,977.61
2022-11-29T23:07:19.413Z,977.60
2022-11-29T23:12:19.331Z,977.55
2022-11-29T23:17:19.263Z,977.46
2022-11-29T23:22:19.219Z,977.45
2022-11-29T23:27:19.151Z,977.45
2022-11-29T23:32:19.131Z,977.38
2022-11-29T23:37:19.022Z,977.37
2022-11-29T23:42:18.970Z,977.29
2022-11-29T23:47:18.908Z,977.34
2022-11-29T23:52:18.862Z,977.31
2022-11-29T23:57:18.807Z,977.38
